createdAt,value
2018-11-12T00:00:41.648Z,0
2018-11-12T00:01:51.262Z,0
2018-11-12T00:03:01.633Z,0
2018-11-12T00:04:11.699Z,0
2018-11-12T00:05:21.822Z,0
2018-11-12T00:06:31.364Z,0
2018-11-12T00:07:41.162Z,0
2018-11-12T00:08:50.709Z,0
2018-11-12T00:10:03.517Z,0
2018-11-12T00:11:13.319Z,0
2018-11-12T00:12:23.420Z,0
2018-11-12T00:13:32.990Z,0
2018-11-12T00:14:42.819Z,0
2018-11-12T00:15:52.883Z,0
2018-11-12T00:17:02.980Z,0
2018-11-12T00:18:13.060Z,0
2018-11-12T00:19:23.121Z,0
2018-11-12T00:20:33.238Z,0
2018-11-12T00:21:42.856Z,0
2018-11-12T00:22:52.932Z,0
2018-11-12T00:24:03.304Z,0
2018-11-12T00:25:13.149Z,0
2018-11-12T00:26:23.246Z,0
2018-11-12T00:27:32.794Z,0
2018-11-12T00:28:42.857Z,0
2018-11-12T00:29:52.923Z,0
2018-11-12T00:31:02.755Z,0
2018-11-12T00:32:12.848Z,0
2018-11-12T00:33:22.638Z,0
2018-11-12T00:34:32.467Z,0
2018-11-12T00:35:42.541Z,0
2018-11-12T00:36:52.390Z,0
2018-11-12T00:38:02.195Z,0
2018-11-12T00:39:12.266Z,0
2018-11-12T00:40:22.090Z,0
2018-11-12T00:41:32.157Z,0
2018-11-12T00:42:42.266Z,0
2018-11-12T00:43:51.810Z,0
2018-11-12T00:45:01.871Z,0
2018-11-12T00:46:11.181Z,0
2018-11-12T00:47:21.291Z,0
2018-11-12T00:48:31.093Z,0
2018-11-12T00:49:41.175Z,0
2018-11-12T00:50:51.275Z,0
2018-11-12T00:52:00.856Z,0
2018-11-12T00:53:10.649Z,0
2018-11-12T00:54:20.711Z,0
2018-11-12T00:55:30.925Z,0
2018-11-12T00:56:40.989Z,0
2018-11-12T00:57:50.525Z,0
2018-11-12T00:59:00.396Z,0
2018-11-12T01:00:10.503Z,0
2018-11-12T01:01:20.034Z,0
2018-11-12T01:02:30.113Z,0
2018-11-12T01:03:39.974Z,0
2018-11-12T01:04:50.039Z,0
2018-11-12T01:05:59.927Z,0
2018-11-12T01:07:11.784Z,0
2018-11-12T01:08:21.848Z,0
2018-11-12T01:09:31.676Z,0
2018-11-12T01:10:41.473Z,0
2018-11-12T01:11:51.055Z,0
2018-11-12T01:13:00.851Z,0
2018-11-12T01:14:10.983Z,0
2018-11-12T01:15:20.845Z,0
2018-11-12T01:16:31.149Z,0
2018-11-12T01:17:40.418Z,0
2018-11-12T01:18:50.480Z,0
2018-11-12T01:19:59.752Z,0
2018-11-12T01:21:09.682Z,0
2018-11-12T01:22:19.527Z,0
2018-11-12T01:23:29.573Z,0
2018-11-12T01:24:39.420Z,0
2018-11-12T01:25:49.211Z,0
2018-11-12T01:26:59.008Z,0
2018-11-12T01:28:08.814Z,0
2018-11-12T01:29:18.621Z,0
2018-11-12T01:30:28.755Z,0
2018-11-12T01:31:38.819Z,0
2018-11-12T01:32:48.651Z,0
2018-11-12T01:33:58.752Z,0
2018-11-12T01:35:08.833Z,0
2018-11-12T01:36:18.629Z,0
2018-11-12T01:37:28.434Z,0
2018-11-12T01:38:38.516Z,0
2018-11-12T01:39:48.610Z,0
2018-11-12T01:40:58.672Z,0
2018-11-12T01:42:09.031Z,0
2018-11-12T01:43:18.506Z,0
2018-11-12T01:44:28.206Z,0
2018-11-12T01:45:38.260Z,0
2018-11-12T01:46:47.798Z,0
2018-11-12T01:47:57.953Z,0
2018-11-12T01:49:07.750Z,0
2018-11-12T01:50:17.572Z,0
2018-11-12T01:51:27.634Z,0
2018-11-12T01:52:37.688Z,0
2018-11-12T01:53:47.526Z,0
2018-11-12T01:54:57.340Z,0
2018-11-12T01:56:07.579Z,0
2018-11-12T01:57:17.636Z,0
2018-11-12T01:58:27.439Z,0
2018-11-12T01:59:37.244Z,0
2018-11-12T02:00:47.292Z,0
2018-11-12T02:01:57.035Z,0
2018-11-12T02:03:07.104Z,0
2018-11-12T02:04:17.198Z,0
2018-11-12T02:05:27.023Z,0
2018-11-12T02:06:37.201Z,0
2018-11-12T02:07:46.738Z,0
2018-11-12T02:08:57.744Z,0
2018-11-12T02:10:10.531Z,0
2018-11-12T02:11:20.070Z,0
2018-11-12T02:12:30.140Z,0
2018-11-12T02:13:39.940Z,0
2018-11-12T02:14:50.544Z,0
2018-11-12T02:16:00.631Z,0
2018-11-12T02:17:09.901Z,0
2018-11-12T02:18:20.007Z,0
2018-11-12T02:19:29.804Z,0
2018-11-12T02:20:39.341Z,0
2018-11-12T02:21:49.232Z,0
2018-11-12T02:22:59.471Z,0
2018-11-12T02:24:09.011Z,0
2018-11-12T02:25:18.608Z,0
2018-11-12T02:26:28.666Z,0
2018-11-12T02:27:38.470Z,0
2018-11-12T02:28:48.393Z,0
2018-11-12T02:29:58.483Z,0
2018-11-12T02:31:09.755Z,0
2018-11-12T02:32:19.642Z,0
2018-11-12T02:33:30.357Z,0
2018-11-12T02:34:39.893Z,0
2018-11-12T02:35:49.702Z,0
2018-11-12T02:36:59.774Z,0
2018-11-12T02:38:09.589Z,0
2018-11-12T02:39:19.650Z,0
2018-11-12T02:40:29.035Z,0
2018-11-12T02:41:38.834Z,0
2018-11-12T02:42:48.124Z,0
2018-11-12T02:43:58.203Z,0
2018-11-12T02:45:07.767Z,0
2018-11-12T02:46:17.378Z,0
2018-11-12T02:47:27.454Z,0
2018-11-12T02:48:37.525Z,0
2018-11-12T02:49:47.338Z,0
2018-11-12T02:50:57.132Z,0
2018-11-12T02:52:06.746Z,0
2018-11-12T02:53:16.821Z,0
2018-11-12T02:54:26.870Z,0
2018-11-12T02:55:36.942Z,0
2018-11-12T02:56:47.011Z,0
2018-11-12T02:57:56.569Z,0
2018-11-12T02:59:07.579Z,0
2018-11-12T03:00:17.740Z,0
2018-11-12T03:01:27.396Z,0
2018-11-12T03:02:37.224Z,0
2018-11-12T03:34:24.492Z,0
2018-11-12T03:35:34.612Z,0
2018-11-12T03:36:44.663Z,0
2018-11-12T03:37:54.476Z,0
2018-11-12T03:39:04.546Z,0
2018-11-12T03:40:14.124Z,0
2018-11-12T03:41:23.930Z,0
2018-11-12T03:42:33.987Z,0
2018-11-12T03:43:44.041Z,0
2018-11-12T03:44:54.138Z,0
2018-11-12T03:46:04.196Z,0
2018-11-12T03:47:14.000Z,0
2018-11-12T03:48:23.805Z,0
2018-11-12T03:49:33.871Z,0
2018-11-12T03:50:43.949Z,0
2018-11-12T03:51:54.082Z,0
2018-11-12T03:53:03.887Z,0
2018-11-12T03:54:13.969Z,0
2018-11-12T03:55:23.762Z,0
2018-11-12T03:56:33.827Z,0
2018-11-12T03:57:43.883Z,0
2018-11-12T03:58:53.694Z,0
2018-11-12T04:00:03.450Z,0
2018-11-12T04:01:13.596Z,0
2018-11-12T04:02:23.676Z,0
2018-11-12T04:03:33.522Z,0
2018-11-12T04:04:43.582Z,0
2018-11-12T04:05:53.643Z,0
2018-11-12T04:07:03.688Z,0
2018-11-12T04:08:13.771Z,0
2018-11-12T04:09:23.834Z,0
2018-11-12T04:10:33.380Z,0
2018-11-12T04:11:43.176Z,0
2018-11-12T04:12:52.981Z,0
2018-11-12T04:14:02.781Z,0
2018-11-12T04:15:12.597Z,0
2018-11-12T04:16:22.677Z,0
2018-11-12T04:17:32.227Z,0
2018-11-12T04:18:42.048Z,0
2018-11-12T04:19:52.195Z,0
2018-11-12T04:21:02.286Z,0
2018-11-12T04:22:12.339Z,0
2018-11-12T04:23:21.681Z,0
2018-11-12T04:24:31.486Z,0
2018-11-12T04:25:41.598Z,0
2018-11-12T04:26:51.417Z,0
2018-11-12T04:28:01.305Z,0
2018-11-12T04:29:10.842Z,0
2018-11-12T04:30:20.655Z,0
2018-11-12T04:31:30.474Z,0
2018-11-12T04:32:40.553Z,0
2018-11-12T04:33:50.662Z,0
2018-11-12T04:35:00.321Z,0
2018-11-12T04:36:10.423Z,0
2018-11-12T04:37:20.218Z,0
2018-11-12T04:38:30.100Z,0
2018-11-12T04:39:40.211Z,0
2018-11-12T04:40:50.023Z,0
2018-11-12T04:41:59.829Z,0
2018-11-12T04:43:09.961Z,0
2018-11-12T04:44:20.049Z,0
2018-11-12T04:45:30.221Z,0
2018-11-12T04:46:40.362Z,0
2018-11-12T04:47:49.716Z,0
2018-11-12T04:48:59.854Z,0
2018-11-12T04:50:09.984Z,0
2018-11-12T04:51:19.836Z,0
2018-11-12T04:52:29.638Z,0
2018-11-12T04:53:40.152Z,0
2018-11-12T04:54:50.028Z,0
2018-11-12T04:56:01.815Z,0
2018-11-12T04:57:11.878Z,0
2018-11-12T04:58:21.162Z,0
2018-11-12T04:59:30.705Z,0
2018-11-12T05:00:40.250Z,0
2018-11-12T05:01:50.235Z,0
2018-11-12T05:03:00.126Z,0
2018-11-12T05:04:09.723Z,0
2018-11-12T05:05:19.794Z,0
2018-11-12T05:06:29.334Z,0
2018-11-12T05:07:40.434Z,0
2018-11-12T05:08:50.317Z,0
2018-11-12T05:10:01.083Z,0
2018-11-12T05:11:11.167Z,0
2018-11-12T05:12:20.953Z,0
2018-11-12T05:13:31.071Z,0
2018-11-12T05:14:40.885Z,0
2018-11-12T05:15:50.684Z,0
2018-11-12T05:17:01.143Z,0
2018-11-12T05:18:11.274Z,0
2018-11-12T05:19:21.336Z,0
2018-11-12T05:20:31.417Z,0
2018-11-12T05:21:41.208Z,0
2018-11-12T05:22:51.310Z,0
2018-11-12T05:24:01.432Z,0
2018-11-12T05:25:11.582Z,0
2018-11-12T05:26:21.181Z,0
2018-11-12T05:27:31.294Z,0
2018-11-12T05:28:41.367Z,0
2018-11-12T05:29:51.448Z,0
2018-11-12T05:31:01.550Z,0
2018-11-12T05:32:11.628Z,0
2018-11-12T05:33:21.711Z,0
2018-11-12T05:34:31.511Z,0
2018-11-12T05:35:41.314Z,0
2018-11-12T05:36:51.421Z,0
2018-11-12T05:38:02.006Z,0
2018-11-12T05:39:11.923Z,0
2018-11-12T05:40:22.002Z,0
2018-11-12T05:41:31.867Z,0
2018-11-12T05:42:41.437Z,0
2018-11-12T05:43:51.257Z,0
2018-11-12T05:45:01.632Z,0
2018-11-12T05:46:11.392Z,0
2018-11-12T05:47:21.531Z,0
2018-11-12T05:48:31.340Z,0
2018-11-12T05:49:41.161Z,0
2018-11-12T05:50:51.242Z,0
2018-11-12T05:52:01.339Z,0
2018-11-12T05:53:11.204Z,0
2018-11-12T05:54:21.275Z,0
2018-11-12T05:55:31.092Z,0
2018-11-12T05:56:40.934Z,0
2018-11-12T05:57:50.993Z,0
2018-11-12T05:59:01.317Z,0
2018-11-12T06:00:13.253Z,0
2018-11-12T06:01:23.076Z,0
2018-11-12T06:02:32.895Z,0
2018-11-12T06:03:42.961Z,0
2018-11-12T06:04:53.439Z,0
2018-11-12T06:06:03.106Z,0
2018-11-12T06:07:13.063Z,0
2018-11-12T06:08:23.153Z,0
2018-11-12T06:09:32.952Z,0
2018-11-12T06:10:42.754Z,0
2018-11-12T06:11:52.288Z,0
2018-11-12T06:13:02.096Z,0
2018-11-12T06:14:11.701Z,5
2018-11-12T06:15:21.771Z,5
2018-11-12T06:16:31.842Z,5
2018-11-12T06:17:41.891Z,5
2018-11-12T06:18:51.712Z,5
2018-11-12T06:20:01.506Z,5
2018-11-12T06:21:12.411Z,5
2018-11-12T06:22:22.209Z,5
2018-11-12T06:23:32.005Z,5
2018-11-12T06:24:42.066Z,5
2018-11-12T06:25:52.135Z,5
2018-11-12T06:27:02.190Z,5
2018-11-12T06:28:11.745Z,5
2018-11-12T06:29:21.822Z,5
2018-11-12T06:30:31.373Z,10
2018-11-12T06:31:41.446Z,10
2018-11-12T06:32:51.267Z,10
2018-11-12T06:34:02.178Z,10
2018-11-12T06:35:11.719Z,10
2018-11-12T06:36:21.538Z,10
2018-11-12T06:37:31.623Z,10
2018-11-12T06:38:41.410Z,10
2018-11-12T06:39:51.464Z,10
2018-11-12T06:41:01.270Z,10
2018-11-12T06:42:11.327Z,15
2018-11-12T06:43:21.545Z,15
2018-11-12T06:44:31.613Z,15
2018-11-12T06:45:41.416Z,15
2018-11-12T06:46:51.476Z,15
2018-11-12T06:48:01.031Z,15
2018-11-12T06:49:12.223Z,15
2018-11-12T06:50:22.027Z,15
2018-11-12T06:51:32.109Z,15
2018-11-12T06:52:42.234Z,15
2018-11-12T06:53:52.314Z,15
2018-11-12T06:55:02.428Z,15
2018-11-12T06:56:12.229Z,15
2018-11-12T06:57:22.039Z,15
2018-11-12T06:58:31.938Z,15
2018-11-12T06:59:42.034Z,15
2018-11-12T07:00:51.788Z,15
2018-11-12T07:02:01.639Z,15
2018-11-12T07:03:11.434Z,15
2018-11-12T07:04:21.566Z,20
2018-11-12T07:05:31.371Z,20
2018-11-12T07:06:42.103Z,20
2018-11-12T07:07:52.180Z,20
2018-11-12T07:09:03.196Z,20
2018-11-12T07:10:13.155Z,20
2018-11-12T07:11:23.262Z,20
2018-11-12T07:12:33.066Z,20
2018-11-12T07:13:42.859Z,25
2018-11-12T07:14:52.948Z,25
2018-11-12T07:16:03.066Z,25
2018-11-12T07:17:12.862Z,25
2018-11-12T07:18:22.930Z,25
2018-11-12T07:19:32.992Z,25
2018-11-12T07:20:42.011Z,25
2018-11-12T07:21:52.074Z,30
2018-11-12T07:23:01.866Z,25
2018-11-12T07:24:11.671Z,25
2018-11-12T07:25:22.358Z,30
2018-11-12T07:26:32.472Z,30
2018-11-12T07:27:42.530Z,30
2018-11-12T07:28:52.593Z,30
2018-11-12T07:30:03.671Z,30
2018-11-12T07:31:14.080Z,30
2018-11-12T07:32:24.210Z,30
2018-11-12T07:33:34.128Z,30
2018-11-12T07:34:43.923Z,30
2018-11-12T07:35:54.005Z,30
2018-11-12T07:37:03.795Z,30
2018-11-12T07:38:13.332Z,30
2018-11-12T07:39:23.136Z,30
2018-11-12T07:40:33.203Z,30
2018-11-12T07:41:43.294Z,25
2018-11-12T07:42:53.373Z,25
2018-11-12T07:44:03.536Z,25
2018-11-12T07:45:13.724Z,30
2018-11-12T07:46:23.535Z,30
2018-11-12T07:47:33.625Z,25
2018-11-12T07:48:43.319Z,30
2018-11-12T07:49:53.247Z,30
2018-11-12T07:51:03.046Z,25
2018-11-12T07:52:13.109Z,25
2018-11-12T07:53:23.188Z,30
2018-11-12T07:54:33.137Z,35
2018-11-12T07:55:42.932Z,30
2018-11-12T07:56:52.997Z,25
2018-11-12T07:58:02.788Z,30
2018-11-12T07:59:12.858Z,30
2018-11-12T08:00:22.125Z,30
2018-11-12T08:01:32.239Z,30
2018-11-12T08:02:41.848Z,25
2018-11-12T08:03:52.411Z,30
2018-11-12T08:05:02.523Z,30
2018-11-12T08:06:12.072Z,30
2018-11-12T08:07:21.677Z,30
2018-11-12T08:08:31.520Z,35
2018-11-12T08:09:42.007Z,30
2018-11-12T08:10:51.773Z,30
2018-11-12T08:12:01.964Z,30
2018-11-12T08:13:12.139Z,30
2018-11-12T08:14:22.325Z,30
2018-11-12T08:15:32.423Z,35
2018-11-12T08:16:42.014Z,40
2018-11-12T08:17:52.753Z,40
2018-11-12T08:19:02.912Z,35
2018-11-12T08:20:12.980Z,40
2018-11-12T08:21:23.046Z,35
2018-11-12T08:22:33.157Z,40
2018-11-12T08:23:42.975Z,40
2018-11-12T08:24:53.569Z,40
2018-11-12T08:26:03.684Z,40
2018-11-12T08:27:13.654Z,40
2018-11-12T08:28:23.464Z,40
2018-11-12T08:29:32.825Z,40
2018-11-12T08:30:42.631Z,45
2018-11-12T08:31:52.697Z,45
2018-11-12T08:33:03.557Z,40
2018-11-12T08:34:13.379Z,40
2018-11-12T08:35:23.184Z,40
2018-11-12T08:36:33.732Z,40
2018-11-12T08:37:43.356Z,40
2018-11-12T08:38:53.479Z,40
2018-11-12T08:40:03.753Z,40
2018-11-12T08:41:13.615Z,40
2018-11-12T08:42:23.499Z,45
2018-11-12T08:43:33.035Z,45
2018-11-12T08:44:43.106Z,45
2018-11-12T08:45:53.208Z,45
2018-11-12T08:47:04.813Z,40
2018-11-12T08:48:14.680Z,40
2018-11-12T08:49:24.681Z,40
2018-11-12T08:50:34.200Z,40
2018-11-12T08:51:44.015Z,40
2018-11-12T08:52:53.836Z,40
2018-11-12T08:54:03.896Z,40
2018-11-12T08:55:14.791Z,40
2018-11-12T08:56:24.514Z,40
2018-11-12T08:57:34.333Z,40
2018-11-12T08:58:44.413Z,40
2018-11-12T08:59:54.255Z,45
2018-11-12T09:01:04.567Z,45
2018-11-12T09:02:14.622Z,45
2018-11-12T09:03:24.690Z,45
2018-11-12T09:04:34.778Z,45
2018-11-12T09:05:45.134Z,45
2018-11-12T09:06:55.021Z,45
2018-11-12T09:08:08.263Z,50
2018-11-12T09:09:18.282Z,50
2018-11-12T09:10:28.345Z,50
2018-11-12T09:11:38.161Z,50
2018-11-12T09:12:47.971Z,50
2018-11-12T09:13:57.828Z,55
2018-11-12T09:15:07.368Z,55
2018-11-12T09:16:16.934Z,55
2018-11-12T09:17:26.769Z,60
2018-11-12T09:18:36.583Z,55
2018-11-12T09:19:46.677Z,55
2018-11-12T09:20:56.499Z,55
2018-11-12T09:22:06.341Z,55
2018-11-12T09:23:15.890Z,55
2018-11-12T09:24:26.522Z,65
2018-11-12T09:25:35.963Z,70
2018-11-12T09:26:45.520Z,65
2018-11-12T09:27:55.119Z,60
2018-11-12T09:29:06.033Z,55
2018-11-12T09:30:15.897Z,50
2018-11-12T09:31:30.228Z,45
2018-11-12T09:32:41.289Z,40
2018-11-12T09:33:51.565Z,40
2018-11-12T09:35:01.700Z,50
2018-11-12T09:36:12.867Z,70
2018-11-12T09:37:23.243Z,65
2018-11-12T09:38:33.807Z,60
2018-11-12T09:39:43.924Z,60
2018-11-12T09:40:53.725Z,60
2018-11-12T09:42:03.802Z,55
2018-11-12T09:43:13.561Z,55
2018-11-12T09:44:23.961Z,60
2018-11-12T09:45:34.126Z,60
2018-11-12T09:46:44.199Z,45
2018-11-12T09:47:54.841Z,45
2018-11-12T09:49:05.241Z,55
2018-11-12T09:50:15.372Z,60
2018-11-12T09:51:25.173Z,55
2018-11-12T09:52:34.717Z,45
2018-11-12T09:53:44.735Z,45
2018-11-12T09:54:55.738Z,45
2018-11-12T09:56:05.281Z,40
2018-11-12T09:57:15.093Z,45
2018-11-12T09:58:25.182Z,50
2018-11-12T09:59:35.796Z,55
2018-11-12T10:00:47.044Z,45
2018-11-12T10:02:00.930Z,55
2018-11-12T10:03:17.994Z,60
2018-11-12T10:04:35.396Z,55
2018-11-12T10:05:54.156Z,50
2018-11-12T10:07:17.373Z,50
2018-11-12T10:08:43.430Z,50
2018-11-12T10:10:11.719Z,50
2018-11-12T10:11:37.299Z,50
2018-11-12T10:12:59.086Z,50
2018-11-12T10:14:22.972Z,50
2018-11-12T10:15:55.964Z,50
2018-11-12T10:17:31.555Z,50
2018-11-12T10:18:43.731Z,55
2018-11-12T10:19:54.015Z,60
2018-11-12T10:21:04.130Z,60
2018-11-12T10:22:14.219Z,65
2018-11-12T10:23:24.334Z,70
2018-11-12T10:24:33.933Z,65
2018-11-12T10:25:43.495Z,65
2018-11-12T10:26:53.579Z,65
2018-11-12T10:28:04.527Z,75
2018-11-12T10:29:14.345Z,70
2018-11-12T10:30:24.417Z,70
2018-11-12T10:31:34.235Z,60
2018-11-12T10:32:44.342Z,60
2018-11-12T10:33:54.530Z,60
2018-11-12T10:35:04.361Z,60
2018-11-12T10:36:13.981Z,60
2018-11-12T10:37:24.058Z,65
2018-11-12T10:38:33.898Z,65
2018-11-12T10:39:43.814Z,65
2018-11-12T10:40:53.575Z,60
2018-11-12T10:42:03.777Z,60
2018-11-12T10:43:13.576Z,65
2018-11-12T10:44:23.391Z,65
2018-11-12T10:45:33.189Z,70
2018-11-12T10:46:43.285Z,70
2018-11-12T10:47:53.723Z,65
2018-11-12T10:49:03.573Z,65
2018-11-12T10:50:13.406Z,45
2018-11-12T10:51:24.000Z,25
2018-11-12T10:52:33.914Z,45
2018-11-12T10:53:55.034Z,50
2018-11-12T10:55:15.998Z,45
2018-11-12T10:56:26.250Z,55
2018-11-12T10:57:36.054Z,50
2018-11-12T10:58:46.149Z,55
2018-11-12T10:59:56.426Z,55
2018-11-12T11:01:06.178Z,60
2018-11-12T11:02:16.244Z,55
2018-11-12T11:03:26.324Z,50
2018-11-12T11:04:36.123Z,50
2018-11-12T11:05:46.464Z,50
2018-11-12T11:06:56.561Z,50
2018-11-12T11:08:07.653Z,55
2018-11-12T11:09:17.868Z,55
2018-11-12T11:10:27.685Z,50
2018-11-12T11:11:37.788Z,45
2018-11-12T11:12:47.598Z,50
2018-11-12T11:13:57.465Z,60
2018-11-12T11:15:07.817Z,60
2018-11-12T11:16:17.654Z,65
2018-11-12T11:17:27.488Z,75
2018-11-12T11:18:37.044Z,75
2018-11-12T11:19:46.960Z,65
2018-11-12T11:20:56.785Z,65
2018-11-12T11:22:06.686Z,60
2018-11-12T11:23:16.769Z,60
2018-11-12T11:24:26.855Z,50
2018-11-12T11:25:36.745Z,55
2018-11-12T11:26:47.321Z,50
2018-11-12T11:27:57.564Z,50
2018-11-12T11:29:08.313Z,55
2018-11-12T11:30:18.242Z,50
2018-11-12T11:31:27.783Z,55
2018-11-12T11:32:37.380Z,55
2018-11-12T11:33:46.918Z,55
2018-11-12T11:34:56.203Z,55
2018-11-12T11:36:05.482Z,50
2018-11-12T11:37:15.447Z,50
2018-11-12T11:38:25.551Z,50
2018-11-12T11:39:35.388Z,50
2018-11-12T11:40:45.817Z,55
2018-11-12T11:41:55.683Z,55
2018-11-12T11:43:05.220Z,55
2018-11-12T11:44:15.060Z,65
2018-11-12T11:45:25.162Z,65
2018-11-12T11:46:35.259Z,70
2018-11-12T11:47:46.094Z,65
2018-11-12T11:48:56.616Z,60
2018-11-12T11:50:08.157Z,60
2018-11-12T11:51:17.738Z,60
2018-11-12T11:52:27.543Z,65
2018-11-12T11:53:37.355Z,70
2018-11-12T11:54:47.146Z,75
2018-11-12T11:55:56.708Z,70
2018-11-12T11:57:07.125Z,65
2018-11-12T11:58:17.224Z,75
2018-11-12T11:59:27.099Z,75
2018-11-12T12:00:37.178Z,75
2018-11-12T12:01:47.480Z,75
2018-11-12T12:02:58.098Z,75
2018-11-12T12:04:07.732Z,80
2018-11-12T12:05:17.810Z,75
2018-11-12T12:06:27.862Z,70
2018-11-12T12:07:37.726Z,65
2018-11-12T12:08:48.243Z,65
2018-11-12T12:09:58.483Z,70
2018-11-12T12:11:10.096Z,70
2018-11-12T12:12:19.906Z,70
2018-11-12T12:13:30.128Z,70
2018-11-12T12:14:39.994Z,65
2018-11-12T12:15:49.557Z,65
2018-11-12T12:16:59.626Z,70
2018-11-12T12:18:09.444Z,70
2018-11-12T12:19:19.950Z,65
2018-11-12T12:20:29.569Z,70
2018-11-12T12:21:39.639Z,70
2018-11-12T12:22:49.450Z,65
2018-11-12T12:23:59.289Z,65
2018-11-12T12:25:09.887Z,70
2018-11-12T12:26:19.900Z,70
2018-11-12T12:27:29.714Z,65
2018-11-12T12:28:39.786Z,65
2018-11-12T12:29:49.353Z,65
2018-11-12T12:30:59.423Z,65
2018-11-12T12:32:09.510Z,70
2018-11-12T12:33:19.579Z,75
2018-11-12T12:34:29.182Z,65
2018-11-12T12:35:39.595Z,60
2018-11-12T12:36:49.930Z,60
2018-11-12T12:37:59.664Z,60
2018-11-12T12:39:09.472Z,55
2018-11-12T12:40:18.752Z,50
2018-11-12T12:41:28.820Z,50
2018-11-12T12:42:38.931Z,50
2018-11-12T12:43:48.534Z,45
2018-11-12T12:44:59.407Z,40
2018-11-12T12:46:09.618Z,40
2018-11-12T12:47:19.182Z,40
2018-11-12T12:48:29.013Z,40
2018-11-12T12:49:39.269Z,40
2018-11-12T12:50:49.153Z,40
2018-11-12T12:51:58.956Z,40
2018-11-12T12:53:09.050Z,40
2018-11-12T12:54:18.863Z,40
2018-11-12T12:55:29.177Z,45
2018-11-12T12:56:39.691Z,40
2018-11-12T12:57:49.295Z,40
2018-11-12T12:58:59.158Z,45
2018-11-12T13:00:09.713Z,45
2018-11-12T13:01:19.592Z,45
2018-11-12T13:02:29.722Z,40
2018-11-12T13:03:39.562Z,40
2018-11-12T13:04:53.596Z,40
2018-11-12T13:06:03.360Z,40
2018-11-12T13:07:13.234Z,40
2018-11-12T13:08:23.108Z,40
2018-11-12T13:09:33.250Z,40
2018-11-12T13:10:43.302Z,40
2018-11-12T13:11:53.178Z,35
2018-11-12T13:13:02.471Z,35
2018-11-12T13:14:13.302Z,35
2018-11-12T13:15:23.394Z,40
2018-11-12T13:16:33.205Z,40
2018-11-12T13:17:43.020Z,45
2018-11-12T13:18:53.189Z,40
2018-11-12T13:20:03.903Z,40
2018-11-12T13:21:13.858Z,40
2018-11-12T13:22:24.237Z,40
2018-11-12T13:23:34.054Z,35
2018-11-12T13:24:43.873Z,40
2018-11-12T13:25:53.726Z,40
2018-11-12T13:27:03.599Z,40
2018-11-12T13:28:13.673Z,40
2018-11-12T13:29:23.333Z,40
2018-11-12T13:30:33.212Z,40
2018-11-12T13:31:43.280Z,40
2018-11-12T13:32:53.345Z,40
2018-11-12T13:34:03.444Z,40
2018-11-12T13:35:13.506Z,45
2018-11-12T13:36:23.640Z,45
2018-11-12T13:37:33.445Z,40
2018-11-12T13:38:43.013Z,40
2018-11-12T13:39:52.822Z,40
2018-11-12T13:41:03.043Z,45
2018-11-12T13:42:12.911Z,45
2018-11-12T13:43:23.020Z,45
2018-11-12T13:44:32.862Z,45
2018-11-12T13:45:42.672Z,45
2018-11-12T13:46:52.840Z,45
2018-11-12T13:48:02.696Z,50
2018-11-12T13:49:12.503Z,50
2018-11-12T13:50:22.637Z,50
2018-11-12T13:51:32.239Z,45
2018-11-12T13:52:42.322Z,45
2018-11-12T13:53:52.443Z,45
2018-11-12T13:55:02.036Z,45
2018-11-12T13:56:11.589Z,45
2018-11-12T13:57:21.413Z,40
2018-11-12T13:58:31.253Z,40
2018-11-12T13:59:41.351Z,35
2018-11-12T14:00:51.657Z,35
2018-11-12T14:02:01.470Z,40
2018-11-12T14:03:11.540Z,40
2018-11-12T14:04:21.362Z,40
2018-11-12T14:05:31.259Z,40
2018-11-12T14:06:40.835Z,35
2018-11-12T14:07:50.892Z,35
2018-11-12T14:09:03.831Z,35
2018-11-12T14:10:13.667Z,35
2018-11-12T14:11:23.591Z,35
2018-11-12T14:12:33.678Z,35
2018-11-12T14:13:43.508Z,35
2018-11-12T14:14:53.338Z,35
2018-11-12T14:16:03.400Z,30
2018-11-12T14:17:13.224Z,30
2018-11-12T14:18:23.323Z,30
2018-11-12T14:19:32.891Z,30
2018-11-12T14:20:43.988Z,30
2018-11-12T14:21:54.491Z,30
2018-11-12T14:23:04.586Z,30
2018-11-12T14:24:14.682Z,25
2018-11-12T14:25:24.482Z,25
2018-11-12T14:26:34.574Z,25
2018-11-12T14:36:10.198Z,25
2018-11-12T14:37:19.914Z,20
2018-11-12T14:38:29.708Z,20
2018-11-12T14:39:39.404Z,20
2018-11-12T14:40:49.020Z,20
2018-11-12T14:41:58.906Z,20
2018-11-12T14:43:09.722Z,20
2018-11-12T14:44:19.541Z,20
2018-11-12T14:45:30.267Z,15
2018-11-12T14:46:40.092Z,15
2018-11-12T14:47:50.251Z,15
2018-11-12T14:49:03.072Z,15
2018-11-12T14:50:12.629Z,15
2018-11-12T14:51:22.939Z,15
2018-11-12T14:52:32.751Z,15
2018-11-12T14:53:42.810Z,15
2018-11-12T14:54:52.741Z,15
2018-11-12T14:56:02.834Z,10
2018-11-12T14:57:12.945Z,10
2018-11-12T14:58:22.760Z,10
2018-11-12T14:59:32.859Z,10
2018-11-12T15:00:42.695Z,10
2018-11-12T15:01:53.199Z,5
2018-11-12T15:03:03.382Z,5
2018-11-12T15:04:12.938Z,5
2018-11-12T15:05:22.577Z,5
2018-11-12T15:06:32.393Z,5
2018-11-12T15:07:42.000Z,5
2018-11-12T15:08:52.428Z,5
2018-11-12T15:10:02.267Z,5
2018-11-12T15:11:12.081Z,5
2018-11-12T15:12:22.197Z,5
2018-11-12T15:13:32.020Z,5
2018-11-12T15:14:42.434Z,5
2018-11-12T15:15:52.588Z,5
2018-11-12T15:17:02.407Z,5
2018-11-12T15:18:12.512Z,5
2018-11-12T15:19:22.323Z,0
2018-11-12T15:20:32.444Z,0
2018-11-12T15:21:42.526Z,0
2018-11-12T15:22:52.893Z,0
2018-11-12T15:24:03.019Z,0
2018-11-12T15:25:12.848Z,0
2018-11-12T15:26:22.643Z,0
2018-11-12T15:27:32.727Z,0
2018-11-12T15:28:42.629Z,0
2018-11-12T15:29:52.445Z,0
2018-11-12T15:31:02.528Z,0
2018-11-12T15:32:12.656Z,0
2018-11-12T15:33:22.718Z,0
2018-11-12T15:34:32.257Z,0
2018-11-12T15:35:42.092Z,0
2018-11-12T15:36:52.558Z,0
2018-11-12T15:38:02.898Z,0
2018-11-12T15:39:12.839Z,0
2018-11-12T15:40:22.459Z,0
2018-11-12T15:41:32.323Z,0
2018-11-12T15:42:42.405Z,0
2018-11-12T15:43:52.498Z,0
2018-11-12T15:45:02.314Z,0
2018-11-12T15:46:11.868Z,0
2018-11-12T15:47:21.948Z,0
2018-11-12T15:48:31.767Z,0
2018-11-12T15:49:41.591Z,0
2018-11-12T15:50:51.309Z,0
2018-11-12T15:52:01.342Z,0
2018-11-12T15:53:11.183Z,0
2018-11-12T15:54:21.255Z,0
2018-11-12T15:55:30.812Z,0
2018-11-12T15:56:40.896Z,0
2018-11-12T15:57:51.561Z,0
2018-11-12T15:59:00.992Z,0
2018-11-12T16:00:11.094Z,0
2018-11-12T16:01:20.935Z,0
2018-11-12T16:02:31.006Z,0
2018-11-12T16:03:41.174Z,0
2018-11-12T16:04:51.288Z,0
2018-11-12T16:06:02.081Z,0
2018-11-12T16:07:12.050Z,0
2018-11-12T16:08:21.896Z,0
2018-11-12T16:09:31.178Z,0
2018-11-12T16:10:41.257Z,0
2018-11-12T16:11:51.058Z,0
2018-11-12T16:13:00.937Z,0
2018-11-12T16:14:10.765Z,0
2018-11-12T16:15:20.320Z,0
2018-11-12T16:16:30.147Z,0
2018-11-12T16:17:39.964Z,0
2018-11-12T16:18:49.784Z,0
2018-11-12T16:19:59.874Z,0
2018-11-12T16:21:09.721Z,0
2018-11-12T16:22:19.272Z,0
2018-11-12T16:23:29.103Z,0
2018-11-12T16:24:39.231Z,0
2018-11-12T16:25:49.325Z,0
2018-11-12T16:26:59.150Z,0
2018-11-12T16:28:08.699Z,0
2018-11-12T16:29:18.514Z,0
2018-11-12T16:30:28.604Z,0
2018-11-12T16:31:38.705Z,0
2018-11-12T16:32:49.969Z,0
2018-11-12T16:34:00.194Z,0
2018-11-12T16:35:10.024Z,0
2018-11-12T16:36:19.574Z,0
2018-11-12T16:37:29.632Z,0
2018-11-12T16:38:39.443Z,0
2018-11-12T16:39:49.385Z,0
2018-11-12T16:40:59.190Z,0
2018-11-12T16:42:09.010Z,0
2018-11-12T16:43:18.578Z,0
2018-11-12T16:44:28.659Z,0
2018-11-12T16:45:38.809Z,0
2018-11-12T16:46:48.885Z,0
2018-11-12T16:47:58.726Z,0
2018-11-12T16:49:10.261Z,0
2018-11-12T16:50:20.097Z,0
2018-11-12T16:51:30.194Z,0
2018-11-12T16:52:40.279Z,0
2018-11-12T16:53:50.381Z,0
2018-11-12T16:55:00.359Z,0
2018-11-12T16:56:10.541Z,0
2018-11-12T16:57:20.674Z,0
2018-11-12T16:58:30.494Z,0
2018-11-12T16:59:40.037Z,0
2018-11-12T17:00:49.615Z,0
2018-11-12T17:01:59.470Z,0
2018-11-12T17:03:09.027Z,0
2018-11-12T17:04:19.118Z,0
2018-11-12T17:05:29.252Z,0
2018-11-12T17:06:39.085Z,0
2018-11-12T17:07:48.888Z,0
2018-11-12T17:08:58.997Z,0
2018-11-12T17:10:09.078Z,0
2018-11-12T17:11:19.468Z,0
2018-11-12T17:12:30.251Z,0
2018-11-12T17:13:39.842Z,0
2018-11-12T17:14:49.983Z,0
2018-11-12T17:16:00.057Z,0
2018-11-12T17:17:12.797Z,0
2018-11-12T17:18:22.917Z,0
2018-11-12T17:19:32.217Z,0
2018-11-12T17:20:41.808Z,0
2018-11-12T17:21:51.645Z,0
2018-11-12T17:23:01.517Z,0
2018-11-12T17:24:11.144Z,0
2018-11-12T17:25:20.443Z,0
2018-11-12T17:26:30.511Z,0
2018-11-12T17:27:40.069Z,0
2018-11-12T17:28:49.908Z,0
2018-11-12T17:29:59.753Z,0
2018-11-12T17:31:10.266Z,0
2018-11-12T17:32:20.454Z,0
2018-11-12T17:33:30.564Z,0
2018-11-12T17:34:40.676Z,0
2018-11-12T17:35:50.787Z,0
2018-11-12T17:37:00.628Z,0
2018-11-12T17:38:10.476Z,0
2018-11-12T17:39:20.294Z,0